createdAt,value
2019-02-04T00:00:34.180Z,17.82
2019-02-04T00:03:01.020Z,16.75
2019-02-04T00:05:27.605Z,16.02
2019-02-04T00:07:54.258Z,17.20
2019-02-04T00:10:20.833Z,15.85
2019-02-04T00:12:47.424Z,16.52
2019-02-04T00:15:14.639Z,17.35
2019-02-04T00:17:41.256Z,16.60
2019-02-04T00:20:07.862Z,15.68
2019-02-04T00:22:34.534Z,15.50
2019-02-04T00:25:01.121Z,16.90
2019-02-04T00:27:27.867Z,16.20
2019-02-04T00:29:54.531Z,15.93
2019-02-04T00:32:21.185Z,15.83
2019-02-04T00:34:48.044Z,16.25
2019-02-04T00:37:14.789Z,15.15
2019-02-04T00:39:41.375Z,16.23
2019-02-04T00:42:07.987Z,14.80
2019-02-04T00:44:34.610Z,14.78
2019-02-04T00:47:01.195Z,14.80
2019-02-04T00:49:27.784Z,15.28
2019-02-04T00:51:54.809Z,14.33
2019-02-04T00:54:21.400Z,13.62
2019-02-04T00:56:48.037Z,14.30
2019-02-04T00:59:14.717Z,13.35
2019-02-04T01:01:41.422Z,13.75
2019-02-04T01:04:08.013Z,14.40
2019-02-04T01:06:34.639Z,14.03
2019-02-04T01:09:01.214Z,15.23
2019-02-04T01:11:28.280Z,13.43
2019-02-04T01:13:54.939Z,13.68
2019-02-04T01:16:21.517Z,13.95
2019-02-04T01:18:48.090Z,13.75
2019-02-04T01:21:14.713Z,12.93
2019-02-04T01:23:41.299Z,12.82
2019-02-04T01:26:07.938Z,13.28
2019-02-04T01:28:34.988Z,12.47
2019-02-04T01:31:01.570Z,12.03
2019-02-04T01:33:28.145Z,12.82
2019-02-04T01:35:54.795Z,12.23
2019-02-04T01:38:21.468Z,12.33
2019-02-04T01:40:48.108Z,13.40
2019-02-04T01:43:14.736Z,12.25
2019-02-04T01:45:41.898Z,12.43
2019-02-04T01:48:08.472Z,12.10
2019-02-04T01:50:35.094Z,12.80
2019-02-04T01:53:01.674Z,12.07
2019-02-04T01:55:28.282Z,11.12
2019-02-04T01:57:55.154Z,13.35
2019-02-04T02:00:21.731Z,11.33
2019-02-04T02:02:48.305Z,11.38
2019-02-04T02:05:15.239Z,10.68
2019-02-04T02:07:41.823Z,10.60
2019-02-04T02:10:08.450Z,11.18
2019-02-04T02:12:35.077Z,10.28
2019-02-04T02:15:01.813Z,11.18
2019-02-04T02:17:28.477Z,10.70
2019-02-04T02:19:55.128Z,11.20
2019-02-04T02:22:22.095Z,10.50
2019-02-04T02:24:48.678Z,11.20
2019-02-04T02:27:15.301Z,10.70
2019-02-04T02:29:41.870Z,12.15
2019-02-04T02:32:08.445Z,10.65
2019-02-04T02:34:35.062Z,9.45
2019-02-04T02:37:01.857Z,10.63
2019-02-04T02:39:28.719Z,11.18
2019-02-04T02:41:55.576Z,9.63
2019-02-04T02:44:22.190Z,10.58
2019-02-04T02:46:48.767Z,10.58
2019-02-04T02:49:15.392Z,10.78
2019-02-04T02:51:41.971Z,9.43
2019-02-04T02:54:08.545Z,9.65
2019-02-04T02:56:36.329Z,8.88
2019-02-04T02:59:03.185Z,10.78
2019-02-04T03:01:29.763Z,9.58
2019-02-04T03:03:56.421Z,9.33
2019-02-04T03:06:23.005Z,9.15
2019-02-04T03:08:49.643Z,9.10
2019-02-04T03:11:16.297Z,9.90
2019-02-04T03:13:42.871Z,9.98
2019-02-04T03:16:09.460Z,9.35
2019-02-04T03:18:36.086Z,9.45
2019-02-04T03:21:02.697Z,9.63
2019-02-04T03:23:29.282Z,8.83
2019-02-04T03:25:56.001Z,10.05
2019-02-04T03:28:22.610Z,8.95
2019-02-04T03:30:49.226Z,9.38
2019-02-04T03:33:15.863Z,9.08
2019-02-04T03:35:42.803Z,9.45
2019-02-04T03:38:09.373Z,9.20
2019-02-04T03:40:36.020Z,8.58
2019-02-04T03:43:02.595Z,8.48
2019-02-04T03:45:29.186Z,8.58
2019-02-04T03:48:04.315Z,8.83
2019-02-04T03:50:24.386Z,8.68
2019-02-04T03:52:51.240Z,7.42
2019-02-04T03:55:17.992Z,7.75
2019-02-04T03:57:44.576Z,7.95
2019-02-04T04:00:11.175Z,7.85
2019-02-04T04:02:37.864Z,7.78
2019-02-04T04:05:04.441Z,8.30
2019-02-04T04:07:31.092Z,8.10
2019-02-04T04:09:58.263Z,8.23
2019-02-04T04:12:24.893Z,7.87
2019-02-04T04:14:51.583Z,8.35
2019-02-04T04:17:18.212Z,7.22
2019-02-04T04:19:44.785Z,7.05
2019-02-04T04:22:11.364Z,7.25
2019-02-04T04:24:38.025Z,7.75
2019-02-04T04:27:04.707Z,7.70
2019-02-04T04:29:31.289Z,6.80
2019-02-04T04:31:57.982Z,7.10
2019-02-04T04:34:24.566Z,7.80
2019-02-04T04:36:51.155Z,7.70
2019-02-04T04:39:17.759Z,6.35
2019-02-04T04:41:44.367Z,7.95
2019-02-04T04:44:10.940Z,6.92
2019-02-04T04:46:37.847Z,7.72
2019-02-04T04:49:04.426Z,6.35
2019-02-04T04:51:31.081Z,6.92
2019-02-04T04:53:57.731Z,6.85
2019-02-04T04:56:24.301Z,6.67
2019-02-04T04:58:50.878Z,6.20
2019-02-04T05:01:17.501Z,6.95
2019-02-04T05:03:44.082Z,7.28
2019-02-04T05:06:10.651Z,7.15
2019-02-04T05:08:37.281Z,6.10
2019-02-04T05:11:03.870Z,6.85
2019-02-04T05:13:30.430Z,6.95
2019-02-04T05:15:57.100Z,7.60
2019-02-04T05:18:23.724Z,6.92
2019-02-04T05:20:50.299Z,6.35
2019-02-04T05:23:18.714Z,6.30
2019-02-04T05:25:45.419Z,5.37
2019-02-04T05:28:11.999Z,6.83
2019-02-04T05:30:38.640Z,6.03
2019-02-04T05:33:05.206Z,6.12
2019-02-04T05:35:31.791Z,5.92
2019-02-04T05:37:58.745Z,7.42
2019-02-04T05:40:25.899Z,6.22
2019-02-04T05:42:52.488Z,6.42
2019-02-04T05:45:19.133Z,5.85
2019-02-04T05:47:45.784Z,5.15
2019-02-04T05:50:12.366Z,5.30
2019-02-04T05:52:38.985Z,5.72
2019-02-04T05:55:05.554Z,5.90
2019-02-04T05:57:32.126Z,5.70
2019-02-04T05:59:59.519Z,5.85
2019-02-04T06:02:26.098Z,4.83
2019-02-04T06:04:52.675Z,5.58
2019-02-04T06:07:19.331Z,4.90
2019-02-04T06:09:45.915Z,5.80
2019-02-04T06:12:12.503Z,5.58
2019-02-04T06:14:39.118Z,6.10
2019-02-04T06:17:06.095Z,5.45
2019-02-04T06:19:32.683Z,5.08
2019-02-04T06:21:59.479Z,5.37
2019-02-04T06:24:26.055Z,5.65
2019-02-04T06:26:52.625Z,5.28
2019-02-04T06:29:19.257Z,5.25
2019-02-04T06:31:45.827Z,5.92
2019-02-04T06:34:12.395Z,5.37
2019-02-04T06:36:39.407Z,5.03
2019-02-04T06:39:05.985Z,5.40
2019-02-04T06:41:32.593Z,5.97
2019-02-04T06:43:59.251Z,5.35
2019-02-04T06:46:25.826Z,5.87
2019-02-04T06:48:52.398Z,5.70
2019-02-04T06:51:19.025Z,5.33
2019-02-04T06:53:45.985Z,5.12
2019-02-04T06:56:12.564Z,5.50
2019-02-04T06:58:39.216Z,5.85
2019-02-04T07:01:05.797Z,4.78
2019-02-04T07:03:32.425Z,5.45
2019-02-04T07:05:59.075Z,5.97
2019-02-04T07:08:25.653Z,6.25
2019-02-04T07:10:52.224Z,6.10
2019-02-04T07:13:19.253Z,7.47
2019-02-04T07:15:45.835Z,6.30
2019-02-04T07:18:12.425Z,7.42
2019-02-04T07:20:39.054Z,7.75
2019-02-04T07:23:05.633Z,7.53
2019-02-04T07:25:32.214Z,7.20
2019-02-04T07:27:59.004Z,7.08
2019-02-04T07:30:25.584Z,7.28
2019-02-04T07:32:52.432Z,6.33
2019-02-04T07:35:19.054Z,7.53
2019-02-04T07:37:45.633Z,7.28
2019-02-04T07:40:12.214Z,7.53
2019-02-04T07:42:38.840Z,7.55
2019-02-04T07:45:05.421Z,7.65
2019-02-04T07:47:32.022Z,7.62
2019-02-04T07:49:58.677Z,7.35
2019-02-04T07:52:25.644Z,7.97
2019-02-04T07:54:52.230Z,8.08
2019-02-04T07:57:18.907Z,8.30
2019-02-04T07:59:46.427Z,7.55
2019-02-04T08:02:13.001Z,6.83
2019-02-04T08:04:39.621Z,7.30
2019-02-04T08:07:06.210Z,8.23
2019-02-04T08:09:33.303Z,6.97
2019-02-04T08:12:00.017Z,6.20
2019-02-04T08:14:26.596Z,6.80
2019-02-04T08:16:53.178Z,6.90
2019-02-04T08:19:19.813Z,7.50
2019-02-04T08:21:46.407Z,6.72
2019-02-04T08:24:12.977Z,6.12
2019-02-04T08:26:39.668Z,7.67
2019-02-04T08:29:06.678Z,7.37
2019-02-04T08:31:33.348Z,7.08
2019-02-04T08:34:00.009Z,7.70
2019-02-04T08:36:26.606Z,7.72
2019-02-04T08:38:53.269Z,7.83
2019-02-04T08:41:19.890Z,8.83
2019-02-04T08:43:46.469Z,6.85
2019-02-04T08:46:13.090Z,7.92
2019-02-04T08:48:39.993Z,7.87
2019-02-04T08:51:06.579Z,8.13
2019-02-04T08:53:33.153Z,10.05
2019-02-04T08:55:59.897Z,8.70
2019-02-04T08:58:26.498Z,9.63
2019-02-04T09:00:53.091Z,9.18
2019-02-04T09:03:19.722Z,9.55
2019-02-04T09:05:46.307Z,9.40
2019-02-04T09:08:13.472Z,8.78
2019-02-04T09:10:40.110Z,9.93
2019-02-04T09:13:06.699Z,10.48
2019-02-04T09:15:33.277Z,11.20
2019-02-04T09:17:59.940Z,10.03
2019-02-04T09:20:26.600Z,10.15
2019-02-04T09:22:53.188Z,11.33
2019-02-04T09:25:19.895Z,10.68
2019-02-04T09:27:47.058Z,9.68
2019-02-04T09:30:14.599Z,9.65
2019-02-04T09:32:41.242Z,10.75
2019-02-04T09:35:07.884Z,9.43
2019-02-04T09:37:34.571Z,9.15
2019-02-04T09:40:01.479Z,9.75
2019-02-04T09:42:28.059Z,9.53
2019-02-04T09:44:54.637Z,9.53
2019-02-04T09:47:21.740Z,9.28
2019-02-04T09:49:48.337Z,8.50
2019-02-04T09:52:15.013Z,10.48
2019-02-04T09:54:41.687Z,8.95
2019-02-04T09:57:08.256Z,8.20
2019-02-04T09:59:35.793Z,9.33
2019-02-04T10:02:02.789Z,9.60
2019-02-04T10:04:29.369Z,8.28
2019-02-04T10:06:56.127Z,8.63
2019-02-04T10:09:22.779Z,8.78
2019-02-04T10:11:49.357Z,8.43
2019-02-04T10:14:15.950Z,8.68
2019-02-04T10:16:42.649Z,8.73
2019-02-04T10:19:09.455Z,8.30
2019-02-04T10:21:36.048Z,7.70
2019-02-04T10:24:03.309Z,8.50
2019-02-04T10:26:30.028Z,7.20
2019-02-04T10:28:56.806Z,7.40
2019-02-04T10:31:23.492Z,7.00
2019-02-04T10:33:50.245Z,8.05
2019-02-04T10:36:17.042Z,8.18
2019-02-04T10:38:43.894Z,8.45
2019-02-04T10:41:10.744Z,7.35
2019-02-04T10:43:37.415Z,8.70
2019-02-04T10:46:04.808Z,8.45
2019-02-04T10:48:33.234Z,7.90
2019-02-04T10:50:59.993Z,7.50
2019-02-04T10:53:26.879Z,7.30
2019-02-04T10:55:53.462Z,6.90
2019-02-04T10:58:20.248Z,7.30
2019-02-04T11:00:47.322Z,6.53
2019-02-04T11:03:13.919Z,6.67
2019-02-04T11:05:40.559Z,6.75
2019-02-04T11:08:07.549Z,7.60
2019-02-04T11:10:34.340Z,7.50
2019-02-04T11:13:01.006Z,7.20
2019-02-04T11:15:27.960Z,7.75
2019-02-04T11:17:54.918Z,7.60
2019-02-04T11:20:21.618Z,6.72
2019-02-04T11:22:48.416Z,6.65
2019-02-04T11:25:15.015Z,7.20
2019-02-04T11:27:41.717Z,7.40
2019-02-04T11:30:08.495Z,7.17
2019-02-04T11:32:35.388Z,6.85
2019-02-04T11:35:02.000Z,6.95
2019-02-04T11:37:29.095Z,6.55
2019-02-04T11:39:55.699Z,6.35
2019-02-04T11:42:22.493Z,6.90
2019-02-04T11:44:49.172Z,5.97
2019-02-04T11:47:15.851Z,8.18
2019-02-04T11:49:42.529Z,6.25
2019-02-04T11:52:09.174Z,6.60
2019-02-04T11:54:36.341Z,6.33
2019-02-04T11:57:02.918Z,6.72
2019-02-04T11:59:29.710Z,6.72
2019-02-04T12:01:56.298Z,6.15
2019-02-04T12:04:22.880Z,7.95
2019-02-04T12:06:49.509Z,7.35
2019-02-04T12:09:16.077Z,6.97
2019-02-04T12:11:42.662Z,6.67
2019-02-04T12:14:09.589Z,6.62
2019-02-04T12:16:36.161Z,6.83
2019-02-04T12:19:02.792Z,7.45
2019-02-04T12:21:29.406Z,6.47
2019-02-04T12:23:56.264Z,6.17
2019-02-04T12:26:22.847Z,6.45
2019-02-04T12:28:49.465Z,6.83
2019-02-04T12:31:16.044Z,5.62
2019-02-04T12:33:42.632Z,6.92
2019-02-04T12:36:09.291Z,6.35
2019-02-04T12:38:35.867Z,6.67
2019-02-04T12:41:02.669Z,5.30
2019-02-04T12:43:29.506Z,6.58
2019-02-04T12:45:56.086Z,6.42
2019-02-04T12:48:22.676Z,6.03
2019-02-04T12:50:49.821Z,5.75
2019-02-04T12:53:16.433Z,6.22
2019-02-04T12:55:43.011Z,6.72
2019-02-04T12:58:09.650Z,5.85
2019-02-04T13:00:36.224Z,6.58
2019-02-04T13:03:02.801Z,5.30
2019-02-04T13:05:29.468Z,6.55
2019-02-04T13:07:56.050Z,7.42
2019-02-04T13:10:22.914Z,6.20
2019-02-04T13:12:49.588Z,5.50
2019-02-04T13:15:16.216Z,6.42
2019-02-04T13:17:42.790Z,5.85
2019-02-04T13:20:09.445Z,5.97
2019-02-04T13:22:36.023Z,6.30
2019-02-04T13:25:02.639Z,5.67
2019-02-04T13:27:29.641Z,5.80
2019-02-04T13:29:56.260Z,6.08
2019-02-04T13:32:22.986Z,5.67
2019-02-04T13:34:49.798Z,5.65
2019-02-04T13:37:16.366Z,6.12
2019-02-04T13:39:43.754Z,6.05
2019-02-04T13:42:10.390Z,5.67
2019-02-04T13:44:36.973Z,5.60
2019-02-04T13:47:05.858Z,5.97
2019-02-04T13:49:32.403Z,5.92
2019-02-04T13:51:58.988Z,6.00
2019-02-04T13:54:25.655Z,5.72
2019-02-04T13:56:52.628Z,5.78
2019-02-04T13:59:19.210Z,6.10
2019-02-04T14:01:45.910Z,6.30
2019-02-04T14:04:12.923Z,6.78
2019-02-04T14:06:39.510Z,5.37
2019-02-04T14:09:06.190Z,6.78
2019-02-04T14:11:32.826Z,5.30
2019-02-04T14:13:59.414Z,6.12
2019-02-04T14:16:26.090Z,6.17
2019-02-04T14:18:53.010Z,5.90
2019-02-04T14:21:20.106Z,6.03
2019-02-04T14:23:47.085Z,6.00
2019-02-04T14:26:13.706Z,5.97
2019-02-04T14:28:40.291Z,5.60
2019-02-04T14:31:06.974Z,5.90
2019-02-04T14:33:33.605Z,6.55
2019-02-04T14:36:00.181Z,5.87
2019-02-04T14:38:26.763Z,6.22
2019-02-04T14:40:53.440Z,6.62
2019-02-04T14:43:20.026Z,6.58
2019-02-04T14:45:46.605Z,5.78
2019-02-04T14:48:14.169Z,6.83
2019-02-04T14:50:40.740Z,5.53
2019-02-04T14:53:07.327Z,5.72
2019-02-04T14:55:33.947Z,6.15
2019-02-04T14:58:01.525Z,6.25
2019-02-04T15:00:28.353Z,5.97
2019-02-04T15:02:55.024Z,5.92
2019-02-04T15:05:21.612Z,6.25
2019-02-04T15:07:48.184Z,5.58
2019-02-04T15:10:14.845Z,6.50
2019-02-04T15:12:42.007Z,6.78
2019-02-04T15:15:08.589Z,14.83
2019-02-04T15:17:35.232Z,16.52
2019-02-04T15:20:01.913Z,18.10
2019-02-04T15:22:33.526Z,17.00
2019-02-04T15:24:57.124Z,19.95
2019-02-04T15:27:23.875Z,18.20
2019-02-04T15:29:51.122Z,18.32
2019-02-04T15:32:18.099Z,19.05
2019-02-04T15:34:44.676Z,19.87
2019-02-04T15:37:11.264Z,18.35
2019-02-04T15:39:37.885Z,19.10
2019-02-04T15:42:04.478Z,19.75
2019-02-04T15:44:31.080Z,20.08
2019-02-04T15:46:58.419Z,19.52
2019-02-04T15:49:25.025Z,20.92
2019-02-04T15:51:51.744Z,19.50
2019-02-04T15:54:18.446Z,20.15
2019-02-04T15:56:45.193Z,18.82
2019-02-04T15:59:11.924Z,18.98
2019-02-04T16:01:39.590Z,18.15
2019-02-04T16:04:09.094Z,18.30
2019-02-04T16:06:38.506Z,19.95
2019-02-04T16:09:05.757Z,20.10
2019-02-04T16:11:32.819Z,19.90
2019-02-04T16:14:06.713Z,18.60
2019-02-04T16:16:33.780Z,19.95
2019-02-04T16:19:00.502Z,19.95
2019-02-04T16:21:27.458Z,17.77
2019-02-04T16:23:54.657Z,18.65
2019-02-04T16:26:21.444Z,19.15
2019-02-04T16:28:48.181Z,18.00
2019-02-04T16:31:17.608Z,19.45
2019-02-04T16:33:44.219Z,18.85
2019-02-04T16:36:10.857Z,17.67
2019-02-04T16:38:40.288Z,18.57
2019-02-04T16:41:07.165Z,17.57
2019-02-04T16:43:33.830Z,17.98
2019-02-04T16:46:00.471Z,17.82
2019-02-04T16:48:27.041Z,19.05
2019-02-04T16:51:10.529Z,18.02
2019-02-04T16:53:22.214Z,17.00
2019-02-04T16:55:49.365Z,18.20
2019-02-04T16:58:15.959Z,17.55
2019-02-04T17:00:43.068Z,16.45
2019-02-04T17:03:09.652Z,17.05
2019-02-04T17:05:36.296Z,17.32
2019-02-04T17:08:02.932Z,17.17
2019-02-04T17:10:29.551Z,17.20
2019-02-04T17:12:56.319Z,15.72
2019-02-04T17:15:25.556Z,16.67
2019-02-04T17:17:51.653Z,15.35
2019-02-04T17:20:18.225Z,15.13
2019-02-04T17:22:44.847Z,15.65
2019-02-04T17:25:11.429Z,15.23
2019-02-04T17:27:38.014Z,15.03
2019-02-04T17:30:04.660Z,16.02
2019-02-04T17:32:31.373Z,16.40
2019-02-04T17:34:58.049Z,15.38
2019-02-04T17:37:24.808Z,14.90
2019-02-04T17:39:51.427Z,15.93
2019-02-04T17:42:18.004Z,15.65
2019-02-04T17:44:44.622Z,14.93
2019-02-04T17:47:11.208Z,14.43
2019-02-04T17:49:37.793Z,15.43
2019-02-04T17:52:05.285Z,15.05
2019-02-04T17:54:32.116Z,14.60
2019-02-04T17:56:58.715Z,13.90
2019-02-04T17:59:25.509Z,14.25
2019-02-04T18:01:52.310Z,13.78
2019-02-04T18:04:18.910Z,13.45
2019-02-04T18:06:45.626Z,13.00
2019-02-04T18:09:12.268Z,13.05
2019-02-04T18:11:39.430Z,12.75
2019-02-04T18:14:06.060Z,12.43
2019-02-04T18:16:32.640Z,13.48
2019-02-04T18:18:59.233Z,11.85
2019-02-04T18:21:25.876Z,12.35
2019-02-04T18:23:52.450Z,12.82
2019-02-04T18:26:19.147Z,12.13
2019-02-04T18:28:47.852Z,12.10
2019-02-04T18:31:14.441Z,12.00
2019-02-04T18:33:41.222Z,11.93
2019-02-04T18:36:07.858Z,12.53
2019-02-04T18:38:34.442Z,12.93
2019-02-04T18:41:01.500Z,12.07
2019-02-04T18:43:28.311Z,11.60
2019-02-04T18:45:54.912Z,11.33
2019-02-04T18:48:22.406Z,12.50
2019-02-04T18:50:49.046Z,10.78
2019-02-04T18:53:17.935Z,11.55
2019-02-04T18:55:44.515Z,11.40
2019-02-04T18:58:11.158Z,12.55
2019-02-04T19:00:37.736Z,10.58
2019-02-04T19:03:16.606Z,12.20
2019-02-04T19:05:33.017Z,11.12
2019-02-04T19:07:59.596Z,11.25
2019-02-04T19:10:26.178Z,12.55
2019-02-04T19:12:55.200Z,10.70
2019-02-04T19:15:21.797Z,12.35
2019-02-04T19:17:48.394Z,12.47
2019-02-04T19:20:15.636Z,11.10
2019-02-04T19:22:42.395Z,11.65
2019-02-04T19:25:08.964Z,11.68
2019-02-04T19:27:35.594Z,12.98
2019-02-04T19:30:02.169Z,12.88
2019-02-04T19:32:28.763Z,11.88
2019-02-04T19:34:55.389Z,12.23
2019-02-04T19:37:23.017Z,10.85
2019-02-04T19:39:50.049Z,11.97
2019-02-04T19:42:17.839Z,12.10
2019-02-04T19:44:44.891Z,13.13
2019-02-04T19:47:11.477Z,12.80
2019-02-04T19:49:38.221Z,12.45
2019-02-04T19:52:04.804Z,13.60
2019-02-04T19:54:31.425Z,12.75
2019-02-04T19:56:58.630Z,13.28
2019-02-04T19:59:25.266Z,12.33
2019-02-04T20:01:51.853Z,12.13
2019-02-04T20:04:18.752Z,13.08
2019-02-04T20:06:45.393Z,12.40
2019-02-04T20:09:11.978Z,12.25
2019-02-04T20:11:38.638Z,12.70
2019-02-04T20:14:05.882Z,12.40
2019-02-04T20:16:33.002Z,13.45
2019-02-04T20:18:59.624Z,20.65
2019-02-04T20:21:26.207Z,17.65
2019-02-04T20:23:52.882Z,18.42
2019-02-04T20:26:19.511Z,19.77
2019-02-04T20:28:46.235Z,18.90
2019-02-04T20:31:12.808Z,18.50
2019-02-04T20:33:39.632Z,18.95
2019-02-04T20:36:06.502Z,19.45
2019-02-04T20:38:33.278Z,18.45
2019-02-04T20:40:59.930Z,18.80
2019-02-04T20:43:26.673Z,17.92
2019-02-04T20:45:53.335Z,17.60
2019-02-04T20:48:19.974Z,15.48
2019-02-04T20:50:46.563Z,18.32
2019-02-04T20:53:13.479Z,18.62
2019-02-04T20:55:40.921Z,17.42
2019-02-04T20:58:08.365Z,17.27
2019-02-04T21:00:35.002Z,18.02
2019-02-04T21:03:02.159Z,16.62
2019-02-04T21:05:28.947Z,16.95
2019-02-04T21:07:55.762Z,16.10
2019-02-04T21:10:22.389Z,17.20
2019-02-04T21:12:49.044Z,16.97
2019-02-04T21:15:15.931Z,17.37
2019-02-04T21:17:42.611Z,18.00
2019-02-04T21:20:09.259Z,18.02
2019-02-04T21:22:35.839Z,16.40
2019-02-04T21:25:02.543Z,18.50
2019-02-04T21:27:29.112Z,16.45
2019-02-04T21:29:55.708Z,16.07
2019-02-04T21:32:23.007Z,15.40
2019-02-04T21:34:49.759Z,16.52
2019-02-04T21:37:16.344Z,15.88
2019-02-04T21:39:43.036Z,17.07
2019-02-04T21:42:09.608Z,15.75
2019-02-04T21:44:36.250Z,16.40
2019-02-04T21:47:02.896Z,16.62
2019-02-04T21:49:29.480Z,15.83
2019-02-04T21:51:56.839Z,16.97
2019-02-04T21:54:23.620Z,16.40
2019-02-04T21:56:50.237Z,16.10
2019-02-04T21:59:16.811Z,15.88
2019-02-04T22:01:43.516Z,16.50
2019-02-04T22:04:10.097Z,14.95
2019-02-04T22:06:36.673Z,16.15
2019-02-04T22:09:03.304Z,16.27
2019-02-04T22:11:29.891Z,17.00
2019-02-04T22:13:57.147Z,16.12
2019-02-04T22:16:23.827Z,16.77
2019-02-04T22:18:50.885Z,17.37
2019-02-04T22:21:17.472Z,15.88
2019-02-04T22:23:44.125Z,16.27
2019-02-04T22:26:10.699Z,16.02
2019-02-04T22:28:38.755Z,14.83
2019-02-04T22:31:05.453Z,16.75
2019-02-04T22:33:32.033Z,16.30
2019-02-04T22:35:58.743Z,15.48
2019-02-04T22:38:37.612Z,16.32
2019-02-04T22:41:04.496Z,15.53
2019-02-04T22:43:31.356Z,16.52
2019-02-04T22:45:57.955Z,16.30
2019-02-04T22:48:24.917Z,15.43
2019-02-04T22:50:51.539Z,15.53
2019-02-04T22:53:18.129Z,15.83
2019-02-04T22:55:44.821Z,16.65
2019-02-04T22:58:11.512Z,15.65
2019-02-04T23:00:38.081Z,16.00
2019-02-04T23:03:04.675Z,16.02
2019-02-04T23:05:31.781Z,15.08
2019-02-04T23:07:58.544Z,15.25
2019-02-04T23:10:25.117Z,15.20
2019-02-04T23:12:51.738Z,16.95
2019-02-04T23:15:18.606Z,15.05
2019-02-04T23:17:45.197Z,14.75
2019-02-04T23:20:11.814Z,15.30
2019-02-04T23:22:38.504Z,14.98
2019-02-04T23:25:05.160Z,15.88
2019-02-04T23:27:31.866Z,15.35
2019-02-04T23:29:58.450Z,14.95
2019-02-04T23:32:25.122Z,15.65
2019-02-04T23:34:51.866Z,14.85
2019-02-04T23:37:18.439Z,15.60
2019-02-04T23:39:45.017Z,15.00
2019-02-04T23:42:12.154Z,15.10
2019-02-04T23:44:38.900Z,15.23
2019-02-04T23:47:05.518Z,14.30
2019-02-04T23:49:32.210Z,14.83
2019-02-04T23:51:58.775Z,15.65
2019-02-04T23:54:25.348Z,15.32
2019-02-04T23:56:52.241Z,13.35
2019-02-04T23:59:19.083Z,14.75
